sensor_id;sensor_type;location;lat;lon;timestamp;pressure;altitude;pressure_sealevel;temperature;humidity
47366;BME280;33105;47.964;7.982;2023-07-31T00:01:47;96868.66;;;14.34;84.19
47366;BME280;33105;47.964;7.982;2023-07-31T00:05:49;96874.38;;;14.42;82.15
47366;BME280;33105;47.964;7.982;2023-07-31T00:09:33;96867.00;;;14.33;83.35
47366;BME280;33105;47.964;7.982;2023-07-31T00:23:08;96857.31;;;14.45;83.57
47366;BME280;33105;47.964;7.982;2023-07-31T00:27:08;96856.25;;;14.41;83.71
47366;BME280;33105;47.964;7.982;2023-07-31T00:30:48;96854.03;;;14.43;83.71
47366;BME280;33105;47.964;7.982;2023-07-31T00:38:45;96846.16;;;14.26;84.85
47366;BME280;33105;47.964;7.982;2023-07-31T00:43:01;96835.72;;;14.23;85.37
47366;BME280;33105;47.964;7.982;2023-07-31T00:47:11;96837.97;;;14.11;84.75
47366;BME280;33105;47.964;7.982;2023-07-31T00:50:31;96841.50;;;14.17;85.48
47366;BME280;33105;47.964;7.982;2023-07-31T00:53:57;96842.59;;;14.21;85.61
47366;BME280;33105;47.964;7.982;2023-07-31T00:56:59;96843.13;;;14.28;84.99
47366;BME280;33105;47.964;7.982;2023-07-31T01:00:45;96845.22;;;14.46;84.07
47366;BME280;33105;47.964;7.982;2023-07-31T01:04:22;96841.63;;;14.51;83.04
47366;BME280;33105;47.964;7.982;2023-07-31T01:09:06;96830.94;;;14.44;83.37
47366;BME280;33105;47.964;7.982;2023-07-31T01:12:22;96826.63;;;14.28;84.17
47366;BME280;33105;47.964;7.982;2023-07-31T01:16:18;96816.75;;;14.27;85.10
47366;BME280;33105;47.964;7.982;2023-07-31T01:20:35;96823.91;;;14.18;85.89
47366;BME280;33105;47.964;7.982;2023-07-31T01:28:19;96820.44;;;14.02;87.12
47366;BME280;33105;47.964;7.982;2023-07-31T01:31:38;96815.50;;;14.04;86.44
47366;BME280;33105;47.964;7.982;2023-07-31T01:34:57;96813.84;;;14.03;86.56
47366;BME280;33105;47.964;7.982;2023-07-31T01:39:12;96815.88;;;13.82;87.01
47366;BME280;33105;47.964;7.982;2023-07-31T01:42:21;96814.44;;;13.90;87.21
47366;BME280;33105;47.964;7.982;2023-07-31T01:45:27;96818.34;;;13.79;86.39
47366;BME280;33105;47.964;7.982;2023-07-31T01:49:00;96810.13;;;13.79;87.88
47366;BME280;33105;47.964;7.982;2023-07-31T01:52:06;96799.16;;;13.74;87.32
47366;BME280;33105;47.964;7.982;2023-07-31T01:55:23;96796.38;;;13.84;86.39
47366;BME280;33105;47.964;7.982;2023-07-31T01:58:27;96796.41;;;13.69;85.95
47366;BME280;33105;47.964;7.982;2023-07-31T02:01:35;96783.03;;;13.57;87.67
47366;BME280;33105;47.964;7.982;2023-07-31T02:05:12;96783.78;;;13.68;85.78
47366;BME280;33105;47.964;7.982;2023-07-31T02:09:49;96789.34;;;13.57;87.06
47366;BME280;33105;47.964;7.982;2023-07-31T02:16:17;96779.47;;;13.51;87.44
47366;BME280;33105;47.964;7.982;2023-07-31T02:19:20;96779.19;;;13.53;86.88
47366;BME280;33105;47.964;7.982;2023-07-31T02:23:32;96764.69;;;13.42;86.05
47366;BME280;33105;47.964;7.982;2023-07-31T02:30:04;96764.38;;;13.49;86.41
47366;BME280;33105;47.964;7.982;2023-07-31T02:33:14;96767.44;;;13.37;85.98
47366;BME280;33105;47.964;7.982;2023-07-31T02:41:00;96769.66;;;13.35;85.64
47366;BME280;33105;47.964;7.982;2023-07-31T02:44:12;96758.16;;;13.28;84.85
47366;BME280;33105;47.964;7.982;2023-07-31T02:47:25;96761.44;;;13.30;85.55
47366;BME280;33105;47.964;7.982;2023-07-31T02:50:30;96772.44;;;13.20;85.74
47366;BME280;33105;47.964;7.982;2023-07-31T02:53:32;96770.22;;;13.12;86.82
47366;BME280;33105;47.964;7.982;2023-07-31T02:56:48;96772.69;;;13.13;86.69
47366;BME280;33105;47.964;7.982;2023-07-31T02:59:50;96766.41;;;13.18;86.12
47366;BME280;33105;47.964;7.982;2023-07-31T03:02:59;96782.31;;;13.01;85.84
47366;BME280;33105;47.964;7.982;2023-07-31T03:06:01;96785.88;;;13.11;85.93
47366;BME280;33105;47.964;7.982;2023-07-31T03:09:02;96779.03;;;13.09;85.33
47366;BME280;33105;47.964;7.982;2023-07-31T03:12:29;96793.28;;;13.06;85.20
47366;BME280;33105;47.964;7.982;2023-07-31T03:15:34;96790.00;;;13.19;85.38
47366;BME280;33105;47.964;7.982;2023-07-31T03:18:46;96785.31;;;13.30;83.66
47366;BME280;33105;47.964;7.982;2023-07-31T03:21:48;96794.63;;;13.28;85.21
47366;BME280;33105;47.964;7.982;2023-07-31T03:25:27;96784.78;;;13.17;84.43
47366;BME280;33105;47.964;7.982;2023-07-31T03:29:01;96780.66;;;13.20;85.09
47366;BME280;33105;47.964;7.982;2023-07-31T03:32:06;96772.72;;;13.08;83.60
47366;BME280;33105;47.964;7.982;2023-07-31T03:35:59;96782.84;;;13.13;83.65
47366;BME280;33105;47.964;7.982;2023-07-31T03:39:05;96776.28;;;13.04;84.20
47366;BME280;33105;47.964;7.982;2023-07-31T03:42:21;96767.81;;;12.80;85.45
47366;BME280;33105;47.964;7.982;2023-07-31T03:45:26;96772.72;;;12.93;85.85
47366;BME280;33105;47.964;7.982;2023-07-31T03:48:27;96766.72;;;12.86;85.94
47366;BME280;33105;47.964;7.982;2023-07-31T03:51:30;96768.59;;;12.95;86.60
47366;BME280;33105;47.964;7.982;2023-07-31T03:54:31;96772.72;;;12.93;85.49
47366;BME280;33105;47.964;7.982;2023-07-31T03:57:33;96773.56;;;12.73;85.63
47366;BME280;33105;47.964;7.982;2023-07-31T04:01:43;96771.63;;;12.89;86.09
47366;BME280;33105;47.964;7.982;2023-07-31T04:04:35;96780.41;;;12.91;87.07
47366;BME280;33105;47.964;7.982;2023-07-31T04:07:43;96774.09;;;12.90;85.47
47366;BME280;33105;47.964;7.982;2023-07-31T04:10:59;96771.34;;;12.90;86.35
47366;BME280;33105;47.964;7.982;2023-07-31T04:14:03;96771.66;;;12.84;86.38
47366;BME280;33105;47.964;7.982;2023-07-31T04:17:08;96772.22;;;12.86;86.33
47366;BME280;33105;47.964;7.982;2023-07-31T04:20:12;96770.84;;;12.73;86.05
47366;BME280;33105;47.964;7.982;2023-07-31T04:23:13;96766.16;;;12.69;86.79
47366;BME280;33105;47.964;7.982;2023-07-31T04:26:14;96763.97;;;12.71;87.69
47366;BME280;33105;47.964;7.982;2023-07-31T04:29:17;96769.72;;;12.89;87.29
47366;BME280;33105;47.964;7.982;2023-07-31T04:32:18;96767.78;;;12.90;86.88
47366;BME280;33105;47.964;7.982;2023-07-31T04:35:21;96775.22;;;12.84;86.59
47366;BME280;33105;47.964;7.982;2023-07-31T04:38:22;96768.09;;;12.83;86.72
47366;BME280;33105;47.964;7.982;2023-07-31T04:41:23;96760.09;;;12.92;85.99
47366;BME280;33105;47.964;7.982;2023-07-31T04:44:29;96776.00;;;12.90;86.71
47366;BME280;33105;47.964;7.982;2023-07-31T04:47:31;96772.44;;;13.00;87.63
47366;BME280;33105;47.964;7.982;2023-07-31T04:50:32;96769.69;;;13.05;86.34
47366;BME280;33105;47.964;7.982;2023-07-31T04:53:34;96775.16;;;13.25;85.11
47366;BME280;33105;47.964;7.982;2023-07-31T04:56:35;96771.88;;;13.23;87.12
47366;BME280;33105;47.964;7.982;2023-07-31T04:59:49;96770.50;;;13.20;86.88
47366;BME280;33105;47.964;7.982;2023-07-31T05:03:05;96762.81;;;13.27;86.16
47366;BME280;33105;47.964;7.982;2023-07-31T05:06:16;96775.44;;;13.13;86.14
47366;BME280;33105;47.964;7.982;2023-07-31T05:09:40;96776.28;;;13.09;86.97
47366;BME280;33105;47.964;7.982;2023-07-31T05:12:53;96775.16;;;13.25;86.95
47366;BME280;33105;47.964;7.982;2023-07-31T05:16:20;96773.50;;;13.34;87.79
47366;BME280;33105;47.964;7.982;2023-07-31T05:19:22;96774.63;;;13.28;88.36
47366;BME280;33105;47.964;7.982;2023-07-31T05:22:51;96784.72;;;13.38;89.04
47366;BME280;33105;47.964;7.982;2023-07-31T05:26:03;96777.09;;;13.30;88.01
47366;BME280;33105;47.964;7.982;2023-07-31T05:29:04;96772.06;;;13.47;88.05
47366;BME280;33105;47.964;7.982;2023-07-31T05:32:10;96776.19;;;13.54;87.70
47366;BME280;33105;47.964;7.982;2023-07-31T05:35:12;96771.72;;;13.63;87.70
47366;BME280;33105;47.964;7.982;2023-07-31T05:38:19;96770.06;;;13.68;87.28
47366;BME280;33105;47.964;7.982;2023-07-31T05:41:30;96770.91;;;13.63;87.76
47366;BME280;33105;47.964;7.982;2023-07-31T05:44:41;96767.34;;;13.62;88.50
47366;BME280;33105;47.964;7.982;2023-07-31T05:51:15;96780.91;;;13.34;88.71
47366;BME280;33105;47.964;7.982;2023-07-31T05:54:27;96778.94;;;13.49;88.20
47366;BME280;33105;47.964;7.982;2023-07-31T05:57:49;96763.25;;;13.60;88.95
47366;BME280;33105;47.964;7.982;2023-07-31T06:01:09;96771.66;;;13.84;89.29
47366;BME280;33105;47.964;7.982;2023-07-31T06:04:12;96775.13;;;14.00;88.91
47366;BME280;33105;47.964;7.982;2023-07-31T06:07:17;96762.25;;;13.90;88.48
47366;BME280;33105;47.964;7.982;2023-07-31T06:10:36;96763.22;;;14.14;88.51
47366;BME280;33105;47.964;7.982;2023-07-31T06:13:49;96761.56;;;14.13;88.09
47366;BME280;33105;47.964;7.982;2023-07-31T06:17:00;96760.00;;;14.07;88.43
47366;BME280;33105;47.964;7.982;2023-07-31T06:20:03;96757.81;;;14.04;88.63
47366;BME280;33105;47.964;7.982;2023-07-31T06:23:15;96746.53;;;14.50;87.58
47366;BME280;33105;47.964;7.982;2023-07-31T06:26:26;96735.78;;;14.82;86.07
47366;BME280;33105;47.964;7.982;2023-07-31T06:30:31;96735.59;;;15.03;85.79
47366;BME280;33105;47.964;7.982;2023-07-31T06:35:16;96741.63;;;14.76;86.48
47366;BME280;33105;47.964;7.982;2023-07-31T06:44:06;96721.88;;;14.97;84.10
47366;BME280;33105;47.964;7.982;2023-07-31T06:51:03;96735.34;;;14.70;83.10
47366;BME280;33105;47.964;7.982;2023-07-31T07:04:51;96755.38;;;15.05;88.06
47366;BME280;33105;47.964;7.982;2023-07-31T07:09:02;96762.41;;;15.16;87.14
47366;BME280;33105;47.964;7.982;2023-07-31T07:12:12;96756.19;;;15.34;87.98
47366;BME280;33105;47.964;7.982;2023-07-31T07:16:19;96754.72;;;15.65;83.49
47366;BME280;33105;47.964;7.982;2023-07-31T07:20:37;96739.44;;;15.97;77.85
47366;BME280;33105;47.964;7.982;2023-07-31T07:23:39;96739.75;;;16.33;75.35
47366;BME280;33105;47.964;7.982;2023-07-31T07:26:50;96727.75;;;16.05;79.92
47366;BME280;33105;47.964;7.982;2023-07-31T07:30:12;96727.19;;;16.41;76.03
47366;BME280;33105;47.964;7.982;2023-07-31T07:33:43;96714.41;;;16.82;72.72
47366;BME280;33105;47.964;7.982;2023-07-31T07:37:21;96713.66;;;17.23;70.26
47366;BME280;33105;47.964;7.982;2023-07-31T07:40:38;96717.38;;;17.73;66.81
47366;BME280;33105;47.964;7.982;2023-07-31T07:43:40;96706.22;;;17.78;72.85
47366;BME280;33105;47.964;7.982;2023-07-31T07:47:14;96711.13;;;18.17;69.71
47366;BME280;33105;47.964;7.982;2023-07-31T07:50:40;96716.06;;;18.43;64.93
47366;BME280;33105;47.964;7.982;2023-07-31T07:54:05;96700.78;;;18.09;64.46
47366;BME280;33105;47.964;7.982;2023-07-31T08:02:07;96708.03;;;19.39;67.36
47366;BME280;33105;47.964;7.982;2023-07-31T08:05:08;96706.66;;;19.19;63.14
47366;BME280;33105;47.964;7.982;2023-07-31T08:08:16;96704.63;;;19.73;58.18
47366;BME280;33105;47.964;7.982;2023-07-31T08:11:17;96714.53;;;19.26;61.14
47366;BME280;33105;47.964;7.982;2023-07-31T08:14:19;96723.66;;;19.35;60.46
47366;BME280;33105;47.964;7.982;2023-07-31T08:17:20;96712.94;;;19.02;61.55
47366;BME280;33105;47.964;7.982;2023-07-31T08:20:23;96705.34;;;19.17;60.97
47366;BME280;33105;47.964;7.982;2023-07-31T08:23:24;96705.97;;;19.14;63.14
47366;BME280;33105;47.964;7.982;2023-07-31T08:26:27;96698.44;;;19.06;61.03
47366;BME280;33105;47.964;7.982;2023-07-31T08:29:30;96707.09;;;19.04;60.30
47366;BME280;33105;47.964;7.982;2023-07-31T08:32:32;96693.69;;;18.97;61.30
47366;BME280;33105;47.964;7.982;2023-07-31T08:35:33;96689.84;;;19.16;59.90
47366;BME280;33105;47.964;7.982;2023-07-31T08:39:09;96700.81;;;19.21;61.40
47366;BME280;33105;47.964;7.982;2023-07-31T08:42:11;96699.22;;;19.28;59.08
47366;BME280;33105;47.964;7.982;2023-07-31T08:45:18;96701.84;;;19.02;61.96
47366;BME280;33105;47.964;7.982;2023-07-31T08:48:23;96701.50;;;19.35;62.71
47366;BME280;33105;47.964;7.982;2023-07-31T08:51:28;96691.69;;;19.60;61.40
47366;BME280;33105;47.964;7.982;2023-07-31T08:54:30;96695.59;;;19.59;57.89
47366;BME280;33105;47.964;7.982;2023-07-31T08:57:37;96686.50;;;19.67;56.44
47366;BME280;33105;47.964;7.982;2023-07-31T09:00:41;96685.25;;;19.99;56.92
47366;BME280;33105;47.964;7.982;2023-07-31T09:03:49;96689.34;;;20.10;59.45
47366;BME280;33105;47.964;7.982;2023-07-31T09:06:57;96682.53;;;20.51;56.16
47366;BME280;33105;47.964;7.982;2023-07-31T09:10:02;96684.63;;;20.62;58.08
47366;BME280;33105;47.964;7.982;2023-07-31T09:13:04;96681.22;;;20.40;54.51
47366;BME280;33105;47.964;7.982;2023-07-31T09:16:08;96679.88;;;20.80;54.14
47366;BME280;33105;47.964;7.982;2023-07-31T09:19:11;96661.88;;;20.95;56.51
47366;BME280;33105;47.964;7.982;2023-07-31T09:22:13;96668.50;;;20.38;53.75
47366;BME280;33105;47.964;7.982;2023-07-31T09:25:25;96649.41;;;20.46;55.82
47366;BME280;33105;47.964;7.982;2023-07-31T09:28:31;96639.56;;;20.57;56.67
47366;BME280;33105;47.964;7.982;2023-07-31T09:31:39;96642.69;;;20.55;55.13
47366;BME280;33105;47.964;7.982;2023-07-31T09:34:42;96642.53;;;20.26;55.23
47366;BME280;33105;47.964;7.982;2023-07-31T09:37:43;96639.59;;;20.48;57.10
47366;BME280;33105;47.964;7.982;2023-07-31T09:40:48;96626.44;;;20.83;56.34
47366;BME280;33105;47.964;7.982;2023-07-31T09:43:54;96616.72;;;21.06;55.74
47366;BME280;33105;47.964;7.982;2023-07-31T09:46:57;96608.88;;;21.09;55.84
47366;BME280;33105;47.964;7.982;2023-07-31T09:49:59;96611.41;;;20.93;54.82
47366;BME280;33105;47.964;7.982;2023-07-31T09:53:01;96601.84;;;21.11;53.84
47366;BME280;33105;47.964;7.982;2023-07-31T09:56:03;96606.75;;;21.14;53.94
47366;BME280;33105;47.964;7.982;2023-07-31T09:59:07;96596.53;;;21.35;52.38
47366;BME280;33105;47.964;7.982;2023-07-31T10:02:15;96582.88;;;21.22;54.21
47366;BME280;33105;47.964;7.982;2023-07-31T10:05:21;96593.09;;;21.00;54.42
47366;BME280;33105;47.964;7.982;2023-07-31T10:08:27;96592.13;;;20.96;52.88
47366;BME280;33105;47.964;7.982;2023-07-31T10:11:36;96582.81;;;20.92;53.21
47366;BME280;33105;47.964;7.982;2023-07-31T10:14:41;96574.16;;;21.32;53.84
47366;BME280;33105;47.964;7.982;2023-07-31T10:17:43;96577.72;;;21.41;53.18
47366;BME280;33105;47.964;7.982;2023-07-31T10:20:46;96566.97;;;21.31;53.86
47366;BME280;33105;47.964;7.982;2023-07-31T10:23:49;96554.22;;;21.30;50.69
47366;BME280;33105;47.964;7.982;2023-07-31T10:26:51;96546.38;;;21.32;52.49
47366;BME280;33105;47.964;7.982;2023-07-31T10:29:56;96541.09;;;21.39;50.71
47366;BME280;33105;47.964;7.982;2023-07-31T10:32:58;96537.94;;;21.49;52.70
47366;BME280;33105;47.964;7.982;2023-07-31T10:36:19;96555.50;;;21.83;51.92
47366;BME280;33105;47.964;7.982;2023-07-31T10:39:35;96542.00;;;21.72;49.73
47366;BME280;33105;47.964;7.982;2023-07-31T10:42:51;96543.50;;;21.70;51.54
47366;BME280;33105;47.964;7.982;2023-07-31T10:45:53;96545.91;;;22.01;55.25
47366;BME280;33105;47.964;7.982;2023-07-31T10:49:02;96541.00;;;22.19;53.24
47366;BME280;33105;47.964;7.982;2023-07-31T10:52:10;96553.69;;;22.08;50.98
47366;BME280;33105;47.964;7.982;2023-07-31T10:55:38;96548.22;;;22.32;51.51
47366;BME280;33105;47.964;7.982;2023-07-31T10:59:00;96546.44;;;22.27;52.55
47366;BME280;33105;47.964;7.982;2023-07-31T11:02:24;96546.88;;;21.55;51.73
47366;BME280;33105;47.964;7.982;2023-07-31T11:05:50;96549.31;;;21.56;52.05
47366;BME280;33105;47.964;7.982;2023-07-31T11:08:54;96539.97;;;21.82;53.04
47366;BME280;33105;47.964;7.982;2023-07-31T11:11:56;96530.28;;;21.88;52.35
47366;BME280;33105;47.964;7.982;2023-07-31T11:14:57;96528.56;;;22.16;55.32
47366;BME280;33105;47.964;7.982;2023-07-31T11:18:09;96530.22;;;22.29;52.65
47366;BME280;33105;47.964;7.982;2023-07-31T11:21:28;96529.34;;;22.37;51.30
47366;BME280;33105;47.964;7.982;2023-07-31T11:24:29;96536.66;;;21.67;52.50
47366;BME280;33105;47.964;7.982;2023-07-31T11:27:38;96530.53;;;21.95;51.90
47366;BME280;33105;47.964;7.982;2023-07-31T11:30:45;96536.66;;;21.47;52.96
47366;BME280;33105;47.964;7.982;2023-07-31T11:33:50;96536.53;;;21.34;51.91
47366;BME280;33105;47.964;7.982;2023-07-31T11:37:05;96528.63;;;21.16;52.52
47366;BME280;33105;47.964;7.982;2023-07-31T11:40:06;96517.16;;;20.88;53.42
47366;BME280;33105;47.964;7.982;2023-07-31T11:43:08;96525.06;;;20.77;54.59
47366;BME280;33105;47.964;7.982;2023-07-31T11:46:10;96517.44;;;20.65;56.61
47366;BME280;33105;47.964;7.982;2023-07-31T11:49:11;96523.16;;;20.98;56.28
47366;BME280;33105;47.964;7.982;2023-07-31T11:52:15;96520.19;;;21.03;55.40
47366;BME280;33105;47.964;7.982;2023-07-31T11:55:19;96516.16;;;20.92;54.89
47366;BME280;33105;47.964;7.982;2023-07-31T11:58:21;96514.25;;;20.84;54.69
47366;BME280;33105;47.964;7.982;2023-07-31T12:01:26;96508.50;;;20.89;55.78
47366;BME280;33105;47.964;7.982;2023-07-31T12:04:29;96508.00;;;20.96;54.56
47366;BME280;33105;47.964;7.982;2023-07-31T12:07:58;96498.06;;;21.16;57.58
47366;BME280;33105;47.964;7.982;2023-07-31T12:11:04;96485.78;;;21.25;55.98
47366;BME280;33105;47.964;7.982;2023-07-31T12:14:07;96486.97;;;21.16;54.35
47366;BME280;33105;47.964;7.982;2023-07-31T12:17:09;96467.03;;;21.14;56.20
47366;BME280;33105;47.964;7.982;2023-07-31T12:20:11;96465.44;;;21.54;54.41
47366;BME280;33105;47.964;7.982;2023-07-31T12:23:34;96456.06;;;21.80;55.56
47366;BME280;33105;47.964;7.982;2023-07-31T12:27:11;96437.34;;;22.34;52.82
47366;BME280;33105;47.964;7.982;2023-07-31T12:30:45;96425.91;;;22.48;49.62
47366;BME280;33105;47.964;7.982;2023-07-31T12:33:51;96430.97;;;22.33;47.60
47366;BME280;33105;47.964;7.982;2023-07-31T12:37:07;96434.69;;;22.25;48.55
47366;BME280;33105;47.964;7.982;2023-07-31T12:40:12;96435.72;;;22.21;49.01
47366;BME280;33105;47.964;7.982;2023-07-31T12:43:26;96435.97;;;21.95;50.01
47366;BME280;33105;47.964;7.982;2023-07-31T12:46:30;96434.13;;;21.66;52.16
47366;BME280;33105;47.964;7.982;2023-07-31T12:49:32;96427.63;;;21.62;51.05
47366;BME280;33105;47.964;7.982;2023-07-31T12:52:36;96425.09;;;21.69;50.65
47366;BME280;33105;47.964;7.982;2023-07-31T12:55:38;96420.91;;;21.63;53.48
47366;BME280;33105;47.964;7.982;2023-07-31T12:58:40;96428.72;;;21.82;52.65
47366;BME280;33105;47.964;7.982;2023-07-31T13:01:42;96425.94;;;21.82;50.67
47366;BME280;33105;47.964;7.982;2023-07-31T13:04:44;96411.16;;;21.90;51.20
47366;BME280;33105;47.964;7.982;2023-07-31T13:07:49;96409.41;;;22.30;51.21
47366;BME280;33105;47.964;7.982;2023-07-31T13:10:56;96410.59;;;22.66;49.97
47366;BME280;33105;47.964;7.982;2023-07-31T13:17:21;96415.47;;;22.45;48.78
47366;BME280;33105;47.964;7.982;2023-07-31T13:20:23;96415.34;;;22.65;51.09
47366;BME280;33105;47.964;7.982;2023-07-31T13:28:10;96403.75;;;22.88;50.26
47366;BME280;33105;47.964;7.982;2023-07-31T13:31:30;96400.06;;;22.84;50.07
47366;BME280;33105;47.964;7.982;2023-07-31T13:34:47;96406.19;;;22.40;49.64
47366;BME280;33105;47.964;7.982;2023-07-31T13:38:55;96395.50;;;22.67;49.28
47366;BME280;33105;47.964;7.982;2023-07-31T13:42:05;96392.47;;;22.23;50.31
47366;BME280;33105;47.964;7.982;2023-07-31T13:45:24;96386.25;;;22.51;51.57
47366;BME280;33105;47.964;7.982;2023-07-31T13:53:37;96364.91;;;22.43;52.33
47366;BME280;33105;47.964;7.982;2023-07-31T13:57:01;96359.53;;;22.62;51.17
47366;BME280;33105;47.964;7.982;2023-07-31T14:00:19;96363.50;;;22.85;50.71
47366;BME280;33105;47.964;7.982;2023-07-31T14:03:36;96356.66;;;22.70;50.13
47366;BME280;33105;47.964;7.982;2023-07-31T14:13:17;96352.22;;;22.82;50.63
47366;BME280;33105;47.964;7.982;2023-07-31T14:18:24;96348.97;;;22.55;48.02
47366;BME280;33105;47.964;7.982;2023-07-31T14:22:37;96355.59;;;22.75;48.03
47366;BME280;33105;47.964;7.982;2023-07-31T14:35:30;96340.75;;;22.59;48.97
47366;BME280;33105;47.964;7.982;2023-07-31T14:39:02;96336.44;;;22.86;48.34
47366;BME280;33105;47.964;7.982;2023-07-31T14:42:39;96335.06;;;22.92;51.51
47366;BME280;33105;47.964;7.982;2023-07-31T14:46:05;96330.63;;;22.91;48.06
47366;BME280;33105;47.964;7.982;2023-07-31T14:54:59;96328.72;;;23.47;48.27
47366;BME280;33105;47.964;7.982;2023-07-31T14:58:35;96323.09;;;23.59;48.97
47366;BME280;33105;47.964;7.982;2023-07-31T15:01:48;96325.06;;;23.59;50.41
47366;BME280;33105;47.964;7.982;2023-07-31T15:08:42;96311.59;;;23.61;47.35
47366;BME280;33105;47.964;7.982;2023-07-31T15:12:57;96318.28;;;23.72;46.13
47366;BME280;33105;47.964;7.982;2023-07-31T15:15:42;96316.19;;;23.69;48.11
47366;BME280;33105;47.964;7.982;2023-07-31T15:18:43;96306.31;;;23.71;47.59
47366;BME280;33105;47.964;7.982;2023-07-31T15:22:13;96297.94;;;23.71;46.07
47366;BME280;33105;47.964;7.982;2023-07-31T15:25:32;96295.97;;;23.72;46.18
47366;BME280;33105;47.964;7.982;2023-07-31T15:29:40;96295.91;;;23.56;49.66
47366;BME280;33105;47.964;7.982;2023-07-31T15:32:52;96293.03;;;23.53;47.79
47366;BME280;33105;47.964;7.982;2023-07-31T15:36:50;96293.47;;;23.55;47.19
47366;BME280;33105;47.964;7.982;2023-07-31T15:48:15;96280.41;;;23.43;51.51
47366;BME280;33105;47.964;7.982;2023-07-31T15:52:19;96269.75;;;23.33;49.02
47366;BME280;33105;47.964;7.982;2023-07-31T16:00:01;96276.59;;;23.35;49.45
47366;BME280;33105;47.964;7.982;2023-07-31T16:03:24;96277.94;;;23.26;43.82
47366;BME280;33105;47.964;7.982;2023-07-31T16:11:20;96282.19;;;23.07;46.37
47366;BME280;33105;47.964;7.982;2023-07-31T16:15:12;96283.53;;;22.86;48.59
47366;BME280;33105;47.964;7.982;2023-07-31T16:19:38;96291.44;;;22.71;46.71
47366;BME280;33105;47.964;7.982;2023-07-31T16:27:01;96286.47;;;22.28;48.39
47366;BME280;33105;47.964;7.982;2023-07-31T16:30:02;96291.47;;;22.11;49.42
47366;BME280;33105;47.964;7.982;2023-07-31T16:33:10;96283.38;;;22.18;49.26
47366;BME280;33105;47.964;7.982;2023-07-31T16:36:11;96271.66;;;22.00;50.97
47366;BME280;33105;47.964;7.982;2023-07-31T16:39:33;96266.81;;;22.21;52.51
47366;BME280;33105;47.964;7.982;2023-07-31T16:42:44;96254.63;;;22.14;49.08
47366;BME280;33105;47.964;7.982;2023-07-31T16:46:00;96247.19;;;22.30;49.43
47366;BME280;33105;47.964;7.982;2023-07-31T16:49:16;96253.56;;;22.06;50.11
47366;BME280;33105;47.964;7.982;2023-07-31T16:56:27;96236.28;;;21.88;51.35
47366;BME280;33105;47.964;7.982;2023-07-31T17:03:05;96222.72;;;21.87;54.65
47366;BME280;33105;47.964;7.982;2023-07-31T17:06:10;96226.06;;;21.80;53.27
47366;BME280;33105;47.964;7.982;2023-07-31T17:09:42;96215.31;;;22.03;50.66
47366;BME280;33105;47.964;7.982;2023-07-31T17:12:54;96203.03;;;22.16;50.66
47366;BME280;33105;47.964;7.982;2023-07-31T17:16:05;96201.84;;;22.29;49.55
47366;BME280;33105;47.964;7.982;2023-07-31T17:22:44;96206.16;;;22.15;52.54
47366;BME280;33105;47.964;7.982;2023-07-31T17:25:46;96209.53;;;22.20;50.64
47366;BME280;33105;47.964;7.982;2023-07-31T17:35:51;96223.28;;;21.80;52.26
47366;BME280;33105;47.964;7.982;2023-07-31T17:38:55;96233.59;;;21.67;51.79
47366;BME280;33105;47.964;7.982;2023-07-31T17:41:59;96232.88;;;21.58;51.58
47366;BME280;33105;47.964;7.982;2023-07-31T17:45:02;96221.03;;;21.25;53.01
47366;BME280;33105;47.964;7.982;2023-07-31T17:48:07;96221.78;;;21.58;51.16
47366;BME280;33105;47.964;7.982;2023-07-31T17:51:09;96221.22;;;21.53;51.89
47366;BME280;33105;47.964;7.982;2023-07-31T17:54:10;96217.38;;;21.57;51.97
47366;BME280;33105;47.964;7.982;2023-07-31T17:57:15;96221.78;;;21.58;54.22
47366;BME280;33105;47.964;7.982;2023-07-31T18:00:16;96217.84;;;21.59;54.32
47366;BME280;33105;47.964;7.982;2023-07-31T18:03:22;96220.09;;;21.33;57.51
47366;BME280;33105;47.964;7.982;2023-07-31T18:06:25;96219.88;;;21.26;56.51
47366;BME280;33105;47.964;7.982;2023-07-31T18:09:29;96215.19;;;21.18;56.33
47366;BME280;33105;47.964;7.982;2023-07-31T18:12:32;96211.09;;;21.03;58.89
47366;BME280;33105;47.964;7.982;2023-07-31T18:15:35;96209.13;;;21.03;57.98
47366;BME280;33105;47.964;7.982;2023-07-31T18:18:38;96210.25;;;20.90;58.38
47366;BME280;33105;47.964;7.982;2023-07-31T18:21:40;96215.53;;;20.83;58.63
47366;BME280;33105;47.964;7.982;2023-07-31T18:24:42;96215.63;;;20.75;59.05
47366;BME280;33105;47.964;7.982;2023-07-31T18:27:44;96204.59;;;20.66;59.70
47366;BME280;33105;47.964;7.982;2023-07-31T18:30:47;96197.56;;;20.68;58.78
47366;BME280;33105;47.964;7.982;2023-07-31T18:33:49;96199.09;;;20.78;58.55
47366;BME280;33105;47.964;7.982;2023-07-31T18:36:50;96191.19;;;20.68;57.35
47366;BME280;33105;47.964;7.982;2023-07-31T18:39:53;96189.16;;;20.56;59.23
47366;BME280;33105;47.964;7.982;2023-07-31T18:42:55;96187.91;;;20.54;61.34
47366;BME280;33105;47.964;7.982;2023-07-31T18:45:58;96189.78;;;20.41;59.10
47366;BME280;33105;47.964;7.982;2023-07-31T18:49:00;96202.03;;;20.40;60.94
47366;BME280;33105;47.964;7.982;2023-07-31T18:52:06;96216.06;;;20.35;61.82
47366;BME280;33105;47.964;7.982;2023-07-31T18:55:08;96209.16;;;20.20;61.32
47366;BME280;33105;47.964;7.982;2023-07-31T18:58:10;96207.19;;;20.00;61.60
47366;BME280;33105;47.964;7.982;2023-07-31T19:01:12;96187.44;;;20.01;61.53
47366;BME280;33105;47.964;7.982;2023-07-31T19:04:14;96178.38;;;20.13;63.14
47366;BME280;33105;47.964;7.982;2023-07-31T19:07:17;96171.63;;;20.23;62.72
47366;BME280;33105;47.964;7.982;2023-07-31T19:10:18;96172.69;;;20.10;64.57
47366;BME280;33105;47.964;7.982;2023-07-31T19:13:19;96162.41;;;20.10;63.41
47366;BME280;33105;47.964;7.982;2023-07-31T19:16:22;96172.97;;;19.96;64.14
47366;BME280;33105;47.964;7.982;2023-07-31T19:19:23;96178.81;;;19.74;63.24
47366;BME280;33105;47.964;7.982;2023-07-31T19:22:24;96163.03;;;19.65;64.27
47366;BME280;33105;47.964;7.982;2023-07-31T19:25:26;96160.09;;;19.91;63.56
47366;BME280;33105;47.964;7.982;2023-07-31T19:28:28;96167.06;;;19.77;64.03